Bradfordsville, Kentucky
Current Conditions -  °F | °C
As of 11:55 AM on Saturday 22 Nov 2014 (Local Time) from K6I2 Reporting Station
Broken Clouds Broken Clouds  
Wind Chill: 55°   Ceiling: 9000
Heat Index: 55°   Visibility: 10mi
Dew Point: 32°   Wind: 15mph
Humidity: 41%   Direction: 190°S
Pressure: 30.28"   Gusts: 24mph
Location:  37.49°N, 85.15°W
Report Text: K6I2 221655Z AUTO 19013G21KT 10SM FEW070 BKN090 13/00 A3028 RMK AO2
Loading
Personal Weather Stations






























Interactive Weather Map New forecast layout! Learn more

10-Day Weather Forecast

Advertisements
Track Severe Weather on mobile